sensor_id;sensor_type;location;lat;lon;timestamp;P1;P2;P0
57884;PMS5003;43703;51.060;-0.086;2022-07-23T00:02:03;10;10;
57884;PMS5003;43703;51.060;-0.086;2022-07-23T00:04:28;8;8;
57884;PMS5003;43703;51.060;-0.086;2022-07-23T00:06:53;11;11;
57884;PMS5003;43703;51.060;-0.086;2022-07-23T00:09:18;9;9;
57884;PMS5003;43703;51.060;-0.086;2022-07-23T00:11:43;9;9;
57884;PMS5003;43703;51.060;-0.086;2022-07-23T00:14:08;9;9;
57884;PMS5003;43703;51.060;-0.086;2022-07-23T00:16:33;9;8;
57884;PMS5003;43703;51.060;-0.086;2022-07-23T00:18:58;11;10;
57884;PMS5003;43703;51.060;-0.086;2022-07-23T00:21:24;12;10;
57884;PMS5003;43703;51.060;-0.086;2022-07-23T00:23:49;10;10;
57884;PMS5003;43703;51.060;-0.086;2022-07-23T00:26:14;11;11;
57884;PMS5003;43703;51.060;-0.086;2022-07-23T00:28:39;14;12;
57884;PMS5003;43703;51.060;-0.086;2022-07-23T00:31:04;11;11;
57884;PMS5003;43703;51.060;-0.086;2022-07-23T00:33:29;14;12;
57884;PMS5003;43703;51.060;-0.086;2022-07-23T00:35:54;9;9;
57884;PMS5003;43703;51.060;-0.086;2022-07-23T00:38:19;13;13;
57884;PMS5003;43703;51.060;-0.086;2022-07-23T00:40:44;14;12;
57884;PMS5003;43703;51.060;-0.086;2022-07-23T00:43:09;14;11;
57884;PMS5003;43703;51.060;-0.086;2022-07-23T00:45:35;12;11;
57884;PMS5003;43703;51.060;-0.086;2022-07-23T00:48:00;12;12;
57884;PMS5003;43703;51.060;-0.086;2022-07-23T00:50:25;12;10;
57884;PMS5003;43703;51.060;-0.086;2022-07-23T00:52:52;14;14;
57884;PMS5003;43703;51.060;-0.086;2022-07-23T00:55:17;14;14;
57884;PMS5003;43703;51.060;-0.086;2022-07-23T00:57:42;10;10;
57884;PMS5003;43703;51.060;-0.086;2022-07-23T01:00:08;12;11;
57884;PMS5003;43703;51.060;-0.086;2022-07-23T01:02:32;12;12;
57884;PMS5003;43703;51.060;-0.086;2022-07-23T01:04:57;11;11;
57884;PMS5003;43703;51.060;-0.086;2022-07-23T01:07:22;13;11;
57884;PMS5003;43703;51.060;-0.086;2022-07-23T01:09:47;10;9;
57884;PMS5003;43703;51.060;-0.086;2022-07-23T01:12:13;14;14;
57884;PMS5003;43703;51.060;-0.086;2022-07-23T01:14:38;11;9;
57884;PMS5003;43703;51.060;-0.086;2022-07-23T01:17:03;12;12;
57884;PMS5003;43703;51.060;-0.086;2022-07-23T01:19:28;11;11;
57884;PMS5003;43703;51.060;-0.086;2022-07-23T01:21:53;12;11;
57884;PMS5003;43703;51.060;-0.086;2022-07-23T01:24:19;12;11;
57884;PMS5003;43703;51.060;-0.086;2022-07-23T01:26:44;10;9;
57884;PMS5003;43703;51.060;-0.086;2022-07-23T01:29:10;13;12;
57884;PMS5003;43703;51.060;-0.086;2022-07-23T01:31:35;15;13;
57884;PMS5003;43703;51.060;-0.086;2022-07-23T01:33:59;12;11;
57884;PMS5003;43703;51.060;-0.086;2022-07-23T01:36:24;12;10;
57884;PMS5003;43703;51.060;-0.086;2022-07-23T01:38:50;9;9;
57884;PMS5003;43703;51.060;-0.086;2022-07-23T01:41:15;10;10;
57884;PMS5003;43703;51.060;-0.086;2022-07-23T01:43:40;9;9;
57884;PMS5003;43703;51.060;-0.086;2022-07-23T01:46:05;13;10;
57884;PMS5003;43703;51.060;-0.086;2022-07-23T01:48:30;14;11;
57884;PMS5003;43703;51.060;-0.086;2022-07-23T01:50:55;13;12;
57884;PMS5003;43703;51.060;-0.086;2022-07-23T01:53:21;13;10;
57884;PMS5003;43703;51.060;-0.086;2022-07-23T01:55:46;9;9;
57884;PMS5003;43703;51.060;-0.086;2022-07-23T01:58:12;14;13;
57884;PMS5003;43703;51.060;-0.086;2022-07-23T02:00:37;12;10;
57884;PMS5003;43703;51.060;-0.086;2022-07-23T02:03:02;9;9;
57884;PMS5003;43703;51.060;-0.086;2022-07-23T02:05:28;7;7;
57884;PMS5003;43703;51.060;-0.086;2022-07-23T02:07:52;12;9;
57884;PMS5003;43703;51.060;-0.086;2022-07-23T02:10:17;11;9;
57884;PMS5003;43703;51.060;-0.086;2022-07-23T02:12:42;11;11;
57884;PMS5003;43703;51.060;-0.086;2022-07-23T02:15:07;8;7;
57884;PMS5003;43703;51.060;-0.086;2022-07-23T02:17:32;11;10;
57884;PMS5003;43703;51.060;-0.086;2022-07-23T02:19:58;9;9;
57884;PMS5003;43703;51.060;-0.086;2022-07-23T02:22:23;10;9;
57884;PMS5003;43703;51.060;-0.086;2022-07-23T02:24:48;10;9;
57884;PMS5003;43703;51.060;-0.086;2022-07-23T02:27:13;9;9;
57884;PMS5003;43703;51.060;-0.086;2022-07-23T02:29:38;10;10;
57884;PMS5003;43703;51.060;-0.086;2022-07-23T02:32:03;10;9;
57884;PMS5003;43703;51.060;-0.086;2022-07-23T02:34:28;9;8;
57884;PMS5003;43703;51.060;-0.086;2022-07-23T02:36:53;10;10;
57884;PMS5003;43703;51.060;-0.086;2022-07-23T02:39:18;8;8;
57884;PMS5003;43703;51.060;-0.086;2022-07-23T02:41:43;9;9;
57884;PMS5003;43703;51.060;-0.086;2022-07-23T02:44:08;8;7;
57884;PMS5003;43703;51.060;-0.086;2022-07-23T02:46:33;10;10;
57884;PMS5003;43703;51.060;-0.086;2022-07-23T02:48:58;10;9;
57884;PMS5003;43703;51.060;-0.086;2022-07-23T02:51:23;8;8;
57884;PMS5003;43703;51.060;-0.086;2022-07-23T02:53:49;9;9;
57884;PMS5003;43703;51.060;-0.086;2022-07-23T02:56:14;8;7;
57884;PMS5003;43703;51.060;-0.086;2022-07-23T02:58:39;7;7;
57884;PMS5003;43703;51.060;-0.086;2022-07-23T03:01:04;10;9;
57884;PMS5003;43703;51.060;-0.086;2022-07-23T03:03:29;10;10;
57884;PMS5003;43703;51.060;-0.086;2022-07-23T03:05:54;11;10;
57884;PMS5003;43703;51.060;-0.086;2022-07-23T03:08:20;8;8;
57884;PMS5003;43703;51.060;-0.086;2022-07-23T03:10:45;8;7;
57884;PMS5003;43703;51.060;-0.086;2022-07-23T03:13:10;8;7;
57884;PMS5003;43703;51.060;-0.086;2022-07-23T03:15:35;7;7;
57884;PMS5003;43703;51.060;-0.086;2022-07-23T03:18:00;8;8;
57884;PMS5003;43703;51.060;-0.086;2022-07-23T03:20:25;8;8;
57884;PMS5003;43703;51.060;-0.086;2022-07-23T03:22:50;9;9;
57884;PMS5003;43703;51.060;-0.086;2022-07-23T03:25:15;7;7;
57884;PMS5003;43703;51.060;-0.086;2022-07-23T03:27:40;7;7;
57884;PMS5003;43703;51.060;-0.086;2022-07-23T03:30:05;9;8;
57884;PMS5003;43703;51.060;-0.086;2022-07-23T03:32:30;11;11;
57884;PMS5003;43703;51.060;-0.086;2022-07-23T03:34:55;8;7;
57884;PMS5003;43703;51.060;-0.086;2022-07-23T03:37:20;9;9;
57884;PMS5003;43703;51.060;-0.086;2022-07-23T03:39:46;11;9;
57884;PMS5003;43703;51.060;-0.086;2022-07-23T03:42:11;7;7;
57884;PMS5003;43703;51.060;-0.086;2022-07-23T03:44:36;9;9;
57884;PMS5003;43703;51.060;-0.086;2022-07-23T03:47:01;8;7;
57884;PMS5003;43703;51.060;-0.086;2022-07-23T03:49:26;10;9;
57884;PMS5003;43703;51.060;-0.086;2022-07-23T03:51:51;9;9;
57884;PMS5003;43703;51.060;-0.086;2022-07-23T03:54:16;10;10;
57884;PMS5003;43703;51.060;-0.086;2022-07-23T03:56:42;11;10;
57884;PMS5003;43703;51.060;-0.086;2022-07-23T03:59:06;8;8;
57884;PMS5003;43703;51.060;-0.086;2022-07-23T04:01:32;14;11;
57884;PMS5003;43703;51.060;-0.086;2022-07-23T04:03:57;9;9;
57884;PMS5003;43703;51.060;-0.086;2022-07-23T04:06:21;10;10;
57884;PMS5003;43703;51.060;-0.086;2022-07-23T04:08:46;9;9;
57884;PMS5003;43703;51.060;-0.086;2022-07-23T04:11:12;11;11;
57884;PMS5003;43703;51.060;-0.086;2022-07-23T04:13:37;9;9;
57884;PMS5003;43703;51.060;-0.086;2022-07-23T04:16:02;12;12;
57884;PMS5003;43703;51.060;-0.086;2022-07-23T04:18:27;10;10;
57884;PMS5003;43703;51.060;-0.086;2022-07-23T04:20:53;9;9;
57884;PMS5003;43703;51.060;-0.086;2022-07-23T04:23:18;12;11;
57884;PMS5003;43703;51.060;-0.086;2022-07-23T04:25:43;10;10;
57884;PMS5003;43703;51.060;-0.086;2022-07-23T04:28:08;11;9;
57884;PMS5003;43703;51.060;-0.086;2022-07-23T04:30:33;11;10;
57884;PMS5003;43703;51.060;-0.086;2022-07-23T04:32:58;13;13;
57884;PMS5003;43703;51.060;-0.086;2022-07-23T04:35:23;9;9;
57884;PMS5003;43703;51.060;-0.086;2022-07-23T04:37:48;15;10;
57884;PMS5003;43703;51.060;-0.086;2022-07-23T04:40:13;9;8;
57884;PMS5003;43703;51.060;-0.086;2022-07-23T04:42:38;12;12;
57884;PMS5003;43703;51.060;-0.086;2022-07-23T04:45:03;8;8;
57884;PMS5003;43703;51.060;-0.086;2022-07-23T04:47:28;12;9;
57884;PMS5003;43703;51.060;-0.086;2022-07-23T04:49:53;7;7;
57884;PMS5003;43703;51.060;-0.086;2022-07-23T04:52:18;9;9;
57884;PMS5003;43703;51.060;-0.086;2022-07-23T04:54:43;8;7;
57884;PMS5003;43703;51.060;-0.086;2022-07-23T04:57:09;8;8;
57884;PMS5003;43703;51.060;-0.086;2022-07-23T04:59:34;9;9;
57884;PMS5003;43703;51.060;-0.086;2022-07-23T05:01:59;10;10;
57884;PMS5003;43703;51.060;-0.086;2022-07-23T05:04:24;10;9;
57884;PMS5003;43703;51.060;-0.086;2022-07-23T05:06:49;8;8;
57884;PMS5003;43703;51.060;-0.086;2022-07-23T05:09:14;11;9;
57884;PMS5003;43703;51.060;-0.086;2022-07-23T05:11:39;9;9;
57884;PMS5003;43703;51.060;-0.086;2022-07-23T05:14:05;9;9;
57884;PMS5003;43703;51.060;-0.086;2022-07-23T05:16:30;8;8;
57884;PMS5003;43703;51.060;-0.086;2022-07-23T05:18:55;7;7;
57884;PMS5003;43703;51.060;-0.086;2022-07-23T05:21:20;8;8;
57884;PMS5003;43703;51.060;-0.086;2022-07-23T05:23:45;8;8;
57884;PMS5003;43703;51.060;-0.086;2022-07-23T05:26:10;8;7;
57884;PMS5003;43703;51.060;-0.086;2022-07-23T05:28:35;10;10;
57884;PMS5003;43703;51.060;-0.086;2022-07-23T05:31:00;12;9;
57884;PMS5003;43703;51.060;-0.086;2022-07-23T05:33:25;10;10;
57884;PMS5003;43703;51.060;-0.086;2022-07-23T05:35:51;8;7;
57884;PMS5003;43703;51.060;-0.086;2022-07-23T05:38:15;8;8;
57884;PMS5003;43703;51.060;-0.086;2022-07-23T05:40:41;11;10;
57884;PMS5003;43703;51.060;-0.086;2022-07-23T05:43:06;11;11;
57884;PMS5003;43703;51.060;-0.086;2022-07-23T05:45:31;11;10;
57884;PMS5003;43703;51.060;-0.086;2022-07-23T05:47:56;10;10;
57884;PMS5003;43703;51.060;-0.086;2022-07-23T05:50:21;10;10;
57884;PMS5003;43703;51.060;-0.086;2022-07-23T05:52:46;8;7;
57884;PMS5003;43703;51.060;-0.086;2022-07-23T05:55:11;11;11;
57884;PMS5003;43703;51.060;-0.086;2022-07-23T05:57:36;9;9;
57884;PMS5003;43703;51.060;-0.086;2022-07-23T06:00:01;10;10;
57884;PMS5003;43703;51.060;-0.086;2022-07-23T06:02:26;9;9;
57884;PMS5003;43703;51.060;-0.086;2022-07-23T06:04:51;11;11;
57884;PMS5003;43703;51.060;-0.086;2022-07-23T06:07:16;12;12;
57884;PMS5003;43703;51.060;-0.086;2022-07-23T06:09:41;13;12;
57884;PMS5003;43703;51.060;-0.086;2022-07-23T06:12:06;12;10;
57884;PMS5003;43703;51.060;-0.086;2022-07-23T06:14:32;14;12;
57884;PMS5003;43703;51.060;-0.086;2022-07-23T06:16:57;11;11;
57884;PMS5003;43703;51.060;-0.086;2022-07-23T06:19:23;10;10;
57884;PMS5003;43703;51.060;-0.086;2022-07-23T06:21:48;9;9;
57884;PMS5003;43703;51.060;-0.086;2022-07-23T06:24:13;15;15;
57884;PMS5003;43703;51.060;-0.086;2022-07-23T06:26:38;13;13;
57884;PMS5003;43703;51.060;-0.086;2022-07-23T06:29:03;13;10;
57884;PMS5003;43703;51.060;-0.086;2022-07-23T06:31:29;14;12;
57884;PMS5003;43703;51.060;-0.086;2022-07-23T06:33:54;11;11;
57884;PMS5003;43703;51.060;-0.086;2022-07-23T06:36:20;16;16;
57884;PMS5003;43703;51.060;-0.086;2022-07-23T06:38:45;13;12;
57884;PMS5003;43703;51.060;-0.086;2022-07-23T06:41:11;15;14;
57884;PMS5003;43703;51.060;-0.086;2022-07-23T06:43:37;12;11;
57884;PMS5003;43703;51.060;-0.086;2022-07-23T06:46:02;12;12;
57884;PMS5003;43703;51.060;-0.086;2022-07-23T06:48:28;10;10;
57884;PMS5003;43703;51.060;-0.086;2022-07-23T06:50:53;14;13;
57884;PMS5003;43703;51.060;-0.086;2022-07-23T06:53:19;10;9;
57884;PMS5003;43703;51.060;-0.086;2022-07-23T06:55:45;11;11;
57884;PMS5003;43703;51.060;-0.086;2022-07-23T06:58:10;10;10;
57884;PMS5003;43703;51.060;-0.086;2022-07-23T07:00:36;12;11;
57884;PMS5003;43703;51.060;-0.086;2022-07-23T07:03:02;9;9;
57884;PMS5003;43703;51.060;-0.086;2022-07-23T07:05:28;16;16;
57884;PMS5003;43703;51.060;-0.086;2022-07-23T07:07:54;14;14;
57884;PMS5003;43703;51.060;-0.086;2022-07-23T07:10:19;12;11;
57884;PMS5003;43703;51.060;-0.086;2022-07-23T07:12:45;12;11;
57884;PMS5003;43703;51.060;-0.086;2022-07-23T07:15:10;14;13;
57884;PMS5003;43703;51.060;-0.086;2022-07-23T07:17:36;12;12;
57884;PMS5003;43703;51.060;-0.086;2022-07-23T07:20:03;10;10;
57884;PMS5003;43703;51.060;-0.086;2022-07-23T07:22:28;12;12;
57884;PMS5003;43703;51.060;-0.086;2022-07-23T07:24:53;9;9;
57884;PMS5003;43703;51.060;-0.086;2022-07-23T07:27:19;10;10;
57884;PMS5003;43703;51.060;-0.086;2022-07-23T07:29:45;10;10;
57884;PMS5003;43703;51.060;-0.086;2022-07-23T07:32:11;10;10;
57884;PMS5003;43703;51.060;-0.086;2022-07-23T07:34:37;10;9;
57884;PMS5003;43703;51.060;-0.086;2022-07-23T07:37:02;8;8;
57884;PMS5003;43703;51.060;-0.086;2022-07-23T07:39:28;9;9;
57884;PMS5003;43703;51.060;-0.086;2022-07-23T07:41:54;10;10;
57884;PMS5003;43703;51.060;-0.086;2022-07-23T07:44:19;10;9;
57884;PMS5003;43703;51.060;-0.086;2022-07-23T07:46:45;10;10;
57884;PMS5003;43703;51.060;-0.086;2022-07-23T07:49:11;11;11;
57884;PMS5003;43703;51.060;-0.086;2022-07-23T07:51:37;8;8;
57884;PMS5003;43703;51.060;-0.086;2022-07-23T07:54:03;10;8;
57884;PMS5003;43703;51.060;-0.086;2022-07-23T07:56:29;9;9;
57884;PMS5003;43703;51.060;-0.086;2022-07-23T07:58:54;11;11;
57884;PMS5003;43703;51.060;-0.086;2022-07-23T08:01:20;10;10;
57884;PMS5003;43703;51.060;-0.086;2022-07-23T08:03:46;10;8;
57884;PMS5003;43703;51.060;-0.086;2022-07-23T08:06:12;8;8;
57884;PMS5003;43703;51.060;-0.086;2022-07-23T08:08:38;11;9;
57884;PMS5003;43703;51.060;-0.086;2022-07-23T08:11:04;10;10;
57884;PMS5003;43703;51.060;-0.086;2022-07-23T08:13:29;10;9;
57884;PMS5003;43703;51.060;-0.086;2022-07-23T08:15:55;9;9;
57884;PMS5003;43703;51.060;-0.086;2022-07-23T08:18:21;8;7;
57884;PMS5003;43703;51.060;-0.086;2022-07-23T08:20:47;9;9;
57884;PMS5003;43703;51.060;-0.086;2022-07-23T08:23:13;7;7;
57884;PMS5003;43703;51.060;-0.086;2022-07-23T08:25:40;9;8;
57884;PMS5003;43703;51.060;-0.086;2022-07-23T08:28:05;9;9;
57884;PMS5003;43703;51.060;-0.086;2022-07-23T08:30:31;9;8;
57884;PMS5003;43703;51.060;-0.086;2022-07-23T08:32:57;7;6;
57884;PMS5003;43703;51.060;-0.086;2022-07-23T08:35:23;7;7;
57884;PMS5003;43703;51.060;-0.086;2022-07-23T08:37:48;8;7;
57884;PMS5003;43703;51.060;-0.086;2022-07-23T08:40:14;7;6;
57884;PMS5003;43703;51.060;-0.086;2022-07-23T08:42:40;7;7;
57884;PMS5003;43703;51.060;-0.086;2022-07-23T08:45:07;6;6;
57884;PMS5003;43703;51.060;-0.086;2022-07-23T08:47:31;6;6;
57884;PMS5003;43703;51.060;-0.086;2022-07-23T08:49:57;7;7;
57884;PMS5003;43703;51.060;-0.086;2022-07-23T08:52:23;7;7;
57884;PMS5003;43703;51.060;-0.086;2022-07-23T08:54:49;5;5;
57884;PMS5003;43703;51.060;-0.086;2022-07-23T08:57:14;7;7;
57884;PMS5003;43703;51.060;-0.086;2022-07-23T08:59:40;6;5;
57884;PMS5003;43703;51.060;-0.086;2022-07-23T09:02:06;7;6;
57884;PMS5003;43703;51.060;-0.086;2022-07-23T09:04:32;6;6;
57884;PMS5003;43703;51.060;-0.086;2022-07-23T09:06:58;5;5;
57884;PMS5003;43703;51.060;-0.086;2022-07-23T09:09:23;7;5;
57884;PMS5003;43703;51.060;-0.086;2022-07-23T09:14:15;5;5;
57884;PMS5003;43703;51.060;-0.086;2022-07-23T09:16:41;8;6;
57884;PMS5003;43703;51.060;-0.086;2022-07-23T09:19:07;5;5;
57884;PMS5003;43703;51.060;-0.086;2022-07-23T09:21:34;6;6;
57884;PMS5003;43703;51.060;-0.086;2022-07-23T09:23:59;5;5;
57884;PMS5003;43703;51.060;-0.086;2022-07-23T09:26:26;5;5;
57884;PMS5003;43703;51.060;-0.086;2022-07-23T09:28:52;7;6;
57884;PMS5003;43703;51.060;-0.086;2022-07-23T09:31:16;6;6;
57884;PMS5003;43703;51.060;-0.086;2022-07-23T09:33:42;6;5;
57884;PMS5003;43703;51.060;-0.086;2022-07-23T09:36:08;4;4;
57884;PMS5003;43703;51.060;-0.086;2022-07-23T09:38:34;5;5;
57884;PMS5003;43703;51.060;-0.086;2022-07-23T09:43:25;5;5;
57884;PMS5003;43703;51.060;-0.086;2022-07-23T09:45:50;5;5;
57884;PMS5003;43703;51.060;-0.086;2022-07-23T09:48:16;7;7;
57884;PMS5003;43703;51.060;-0.086;2022-07-23T09:50:42;6;6;
57884;PMS5003;43703;51.060;-0.086;2022-07-23T09:53:07;6;6;
57884;PMS5003;43703;51.060;-0.086;2022-07-23T09:55:34;6;6;
57884;PMS5003;43703;51.060;-0.086;2022-07-23T09:57:58;6;6;
57884;PMS5003;43703;51.060;-0.086;2022-07-23T10:00:23;10;7;
57884;PMS5003;43703;51.060;-0.086;2022-07-23T10:02:48;7;6;
57884;PMS5003;43703;51.060;-0.086;2022-07-23T10:05:13;4;4;
57884;PMS5003;43703;51.060;-0.086;2022-07-23T10:07:39;7;7;
57884;PMS5003;43703;51.060;-0.086;2022-07-23T10:10:05;5;5;
57884;PMS5003;43703;51.060;-0.086;2022-07-23T10:12:29;6;6;
57884;PMS5003;43703;51.060;-0.086;2022-07-23T10:14:54;7;7;
57884;PMS5003;43703;51.060;-0.086;2022-07-23T10:17:19;8;8;
57884;PMS5003;43703;51.060;-0.086;2022-07-23T10:19:45;9;9;
57884;PMS5003;43703;51.060;-0.086;2022-07-23T10:22:10;4;4;
57884;PMS5003;43703;51.060;-0.086;2022-07-23T10:24:40;6;6;
57884;PMS5003;43703;51.060;-0.086;2022-07-23T10:27:02;4;4;
57884;PMS5003;43703;51.060;-0.086;2022-07-23T10:29:30;4;4;
57884;PMS5003;43703;51.060;-0.086;2022-07-23T10:31:52;4;4;
57884;PMS5003;43703;51.060;-0.086;2022-07-23T10:34:17;4;4;
57884;PMS5003;43703;51.060;-0.086;2022-07-23T10:36:42;4;4;
57884;PMS5003;43703;51.060;-0.086;2022-07-23T10:39:05;4;4;
57884;PMS5003;43703;51.060;-0.086;2022-07-23T10:41:31;5;5;
57884;PMS5003;43703;51.060;-0.086;2022-07-23T10:46:21;8;6;
57884;PMS5003;43703;51.060;-0.086;2022-07-23T10:48:46;7;7;
57884;PMS5003;43703;51.060;-0.086;2022-07-23T10:51:11;5;5;
57884;PMS5003;43703;51.060;-0.086;2022-07-23T10:56:01;4;4;
57884;PMS5003;43703;51.060;-0.086;2022-07-23T11:00:52;6;5;
57884;PMS5003;43703;51.060;-0.086;2022-07-23T11:05:45;3;3;
57884;PMS5003;43703;51.060;-0.086;2022-07-23T11:08:10;6;5;
57884;PMS5003;43703;51.060;-0.086;2022-07-23T11:10:34;5;5;
57884;PMS5003;43703;51.060;-0.086;2022-07-23T11:13:01;4;4;
57884;PMS5003;43703;51.060;-0.086;2022-07-23T11:15:24;3;3;
57884;PMS5003;43703;51.060;-0.086;2022-07-23T11:20:16;5;5;
57884;PMS5003;43703;51.060;-0.086;2022-07-23T11:22:40;4;4;
57884;PMS5003;43703;51.060;-0.086;2022-07-23T11:25:04;5;5;
57884;PMS5003;43703;51.060;-0.086;2022-07-23T11:29:55;6;6;
57884;PMS5003;43703;51.060;-0.086;2022-07-23T11:34:45;6;4;
57884;PMS5003;43703;51.060;-0.086;2022-07-23T11:37:10;5;5;
57884;PMS5003;43703;51.060;-0.086;2022-07-23T11:39:35;6;4;
57884;PMS5003;43703;51.060;-0.086;2022-07-23T11:42:01;5;5;
57884;PMS5003;43703;51.060;-0.086;2022-07-23T11:44:25;4;4;
57884;PMS5003;43703;51.060;-0.086;2022-07-23T11:46:54;7;7;
57884;PMS5003;43703;51.060;-0.086;2022-07-23T11:49:15;7;7;
57884;PMS5003;43703;51.060;-0.086;2022-07-23T11:51:41;6;6;
57884;PMS5003;43703;51.060;-0.086;2022-07-23T11:54:06;4;4;
57884;PMS5003;43703;51.060;-0.086;2022-07-23T11:56:32;7;7;
57884;PMS5003;43703;51.060;-0.086;2022-07-23T11:58:58;6;6;
57884;PMS5003;43703;51.060;-0.086;2022-07-23T12:01:24;4;4;
57884;PMS5003;43703;51.060;-0.086;2022-07-23T12:03:50;5;5;
57884;PMS5003;43703;51.060;-0.086;2022-07-23T12:06:16;5;5;
57884;PMS5003;43703;51.060;-0.086;2022-07-23T12:08:42;9;7;
57884;PMS5003;43703;51.060;-0.086;2022-07-23T12:11:07;7;7;
57884;PMS5003;43703;51.060;-0.086;2022-07-23T12:13:33;5;4;
57884;PMS5003;43703;51.060;-0.086;2022-07-23T12:15:59;8;7;
57884;PMS5003;43703;51.060;-0.086;2022-07-23T12:18:26;5;5;
57884;PMS5003;43703;51.060;-0.086;2022-07-23T12:20:51;7;6;
57884;PMS5003;43703;51.060;-0.086;2022-07-23T12:23:18;5;5;
57884;PMS5003;43703;51.060;-0.086;2022-07-23T12:25:44;5;5;
57884;PMS5003;43703;51.060;-0.086;2022-07-23T12:28:09;4;4;
57884;PMS5003;43703;51.060;-0.086;2022-07-23T12:30:37;7;7;
57884;PMS5003;43703;51.060;-0.086;2022-07-23T12:33:01;3;3;
57884;PMS5003;43703;51.060;-0.086;2022-07-23T12:35:30;5;4;
57884;PMS5003;43703;51.060;-0.086;2022-07-23T12:37:51;6;6;
57884;PMS5003;43703;51.060;-0.086;2022-07-23T12:40:18;4;4;
57884;PMS5003;43703;51.060;-0.086;2022-07-23T12:42:42;4;4;
57884;PMS5003;43703;51.060;-0.086;2022-07-23T12:45:10;5;5;
57884;PMS5003;43703;51.060;-0.086;2022-07-23T12:50:00;5;5;
57884;PMS5003;43703;51.060;-0.086;2022-07-23T12:52:26;5;5;
57884;PMS5003;43703;51.060;-0.086;2022-07-23T12:54:52;3;3;
57884;PMS5003;43703;51.060;-0.086;2022-07-23T12:57:18;4;4;
57884;PMS5003;43703;51.060;-0.086;2022-07-23T12:59:43;6;6;
57884;PMS5003;43703;51.060;-0.086;2022-07-23T13:02:09;4;4;
57884;PMS5003;43703;51.060;-0.086;2022-07-23T13:04:35;5;5;
57884;PMS5003;43703;51.060;-0.086;2022-07-23T13:07:01;4;4;
57884;PMS5003;43703;51.060;-0.086;2022-07-23T13:09:27;4;4;
57884;PMS5003;43703;51.060;-0.086;2022-07-23T13:11:53;7;5;
57884;PMS5003;43703;51.060;-0.086;2022-07-23T13:14:19;2;2;
57884;PMS5003;43703;51.060;-0.086;2022-07-23T13:16:44;4;4;
57884;PMS5003;43703;51.060;-0.086;2022-07-23T13:19:10;5;4;
57884;PMS5003;43703;51.060;-0.086;2022-07-23T13:21:35;5;5;
57884;PMS5003;43703;51.060;-0.086;2022-07-23T13:24:00;6;5;
57884;PMS5003;43703;51.060;-0.086;2022-07-23T13:26:26;4;4;
57884;PMS5003;43703;51.060;-0.086;2022-07-23T13:28:52;4;4;
57884;PMS5003;43703;51.060;-0.086;2022-07-23T13:31:18;5;5;
57884;PMS5003;43703;51.060;-0.086;2022-07-23T13:33:44;4;4;
57884;PMS5003;43703;51.060;-0.086;2022-07-23T13:36:09;4;4;
57884;PMS5003;43703;51.060;-0.086;2022-07-23T13:38:35;5;5;
57884;PMS5003;43703;51.060;-0.086;2022-07-23T13:41:01;4;4;
57884;PMS5003;43703;51.060;-0.086;2022-07-23T13:43:27;4;4;
57884;PMS5003;43703;51.060;-0.086;2022-07-23T13:45:53;7;7;
57884;PMS5003;43703;51.060;-0.086;2022-07-23T13:48:18;6;6;
57884;PMS5003;43703;51.060;-0.086;2022-07-23T13:50:44;4;4;
57884;PMS5003;43703;51.060;-0.086;2022-07-23T13:53:10;3;3;
57884;PMS5003;43703;51.060;-0.086;2022-07-23T13:55:36;4;4;
57884;PMS5003;43703;51.060;-0.086;2022-07-23T13:58:02;2;2;
57884;PMS5003;43703;51.060;-0.086;2022-07-23T14:00:28;5;5;
57884;PMS5003;43703;51.060;-0.086;2022-07-23T14:02:53;4;4;
57884;PMS5003;43703;51.060;-0.086;2022-07-23T14:05:19;4;4;
57884;PMS5003;43703;51.060;-0.086;2022-07-23T14:07:45;7;5;
57884;PMS5003;43703;51.060;-0.086;2022-07-23T14:10:11;3;3;
57884;PMS5003;43703;51.060;-0.086;2022-07-23T14:12:36;4;4;
57884;PMS5003;43703;51.060;-0.086;2022-07-23T14:15:03;2;2;
57884;PMS5003;43703;51.060;-0.086;2022-07-23T14:17:28;2;2;
57884;PMS5003;43703;51.060;-0.086;2022-07-23T14:19:54;3;3;
57884;PMS5003;43703;51.060;-0.086;2022-07-23T14:22:20;3;3;
57884;PMS5003;43703;51.060;-0.086;2022-07-23T14:24:46;1;1;
57884;PMS5003;43703;51.060;-0.086;2022-07-23T14:27:12;2;2;
57884;PMS5003;43703;51.060;-0.086;2022-07-23T14:29:38;2;2;
57884;PMS5003;43703;51.060;-0.086;2022-07-23T14:32:04;5;4;
57884;PMS5003;43703;51.060;-0.086;2022-07-23T14:34:30;3;3;
57884;PMS5003;43703;51.060;-0.086;2022-07-23T14:36:56;6;4;
57884;PMS5003;43703;51.060;-0.086;2022-07-23T14:39:21;2;2;
57884;PMS5003;43703;51.060;-0.086;2022-07-23T14:41:47;3;3;
57884;PMS5003;43703;51.060;-0.086;2022-07-23T14:44:13;3;3;
57884;PMS5003;43703;51.060;-0.086;2022-07-23T14:46:38;2;2;
57884;PMS5003;43703;51.060;-0.086;2022-07-23T14:49:04;4;4;
57884;PMS5003;43703;51.060;-0.086;2022-07-23T14:51:30;2;2;
57884;PMS5003;43703;51.060;-0.086;2022-07-23T14:53:56;2;2;
57884;PMS5003;43703;51.060;-0.086;2022-07-23T14:56:22;3;3;
57884;PMS5003;43703;51.060;-0.086;2022-07-23T14:58:48;5;4;
57884;PMS5003;43703;51.060;-0.086;2022-07-23T15:01:14;4;3;
57884;PMS5003;43703;51.060;-0.086;2022-07-23T15:03:40;2;2;
57884;PMS5003;43703;51.060;-0.086;2022-07-23T15:06:06;2;2;
57884;PMS5003;43703;51.060;-0.086;2022-07-23T15:08:31;2;2;
57884;PMS5003;43703;51.060;-0.086;2022-07-23T15:10:57;2;2;
57884;PMS5003;43703;51.060;-0.086;2022-07-23T15:13:23;3;3;
57884;PMS5003;43703;51.060;-0.086;2022-07-23T15:15:49;2;2;
57884;PMS5003;43703;51.060;-0.086;2022-07-23T15:18:15;3;3;
57884;PMS5003;43703;51.060;-0.086;2022-07-23T15:20:40;3;3;
57884;PMS5003;43703;51.060;-0.086;2022-07-23T15:23:07;2;2;
57884;PMS5003;43703;51.060;-0.086;2022-07-23T15:25:32;4;4;
57884;PMS5003;43703;51.060;-0.086;2022-07-23T15:27:58;4;4;
57884;PMS5003;43703;51.060;-0.086;2022-07-23T15:30:24;3;3;
57884;PMS5003;43703;51.060;-0.086;2022-07-23T15:32:50;4;3;
57884;PMS5003;43703;51.060;-0.086;2022-07-23T15:35:16;4;4;
57884;PMS5003;43703;51.060;-0.086;2022-07-23T15:37:42;2;2;
57884;PMS5003;43703;51.060;-0.086;2022-07-23T15:40:08;3;3;
57884;PMS5003;43703;51.060;-0.086;2022-07-23T15:42:33;4;4;
57884;PMS5003;43703;51.060;-0.086;2022-07-23T15:44:58;3;3;
57884;PMS5003;43703;51.060;-0.086;2022-07-23T15:47:24;5;3;
57884;PMS5003;43703;51.060;-0.086;2022-07-23T15:49:50;4;4;
57884;PMS5003;43703;51.060;-0.086;2022-07-23T15:52:16;6;6;
57884;PMS5003;43703;51.060;-0.086;2022-07-23T15:54:42;5;5;
57884;PMS5003;43703;51.060;-0.086;2022-07-23T15:57:08;4;4;
57884;PMS5003;43703;51.060;-0.086;2022-07-23T15:59:34;7;7;
57884;PMS5003;43703;51.060;-0.086;2022-07-23T16:02:00;7;7;
57884;PMS5003;43703;51.060;-0.086;2022-07-23T16:04:25;6;5;
57884;PMS5003;43703;51.060;-0.086;2022-07-23T16:06:51;7;6;
57884;PMS5003;43703;51.060;-0.086;2022-07-23T16:09:17;5;4;
57884;PMS5003;43703;51.060;-0.086;2022-07-23T16:11:43;4;4;
57884;PMS5003;43703;51.060;-0.086;2022-07-23T16:14:08;7;4;
57884;PMS5003;43703;51.060;-0.086;2022-07-23T16:16:34;4;4;
57884;PMS5003;43703;51.060;-0.086;2022-07-23T16:19:00;5;5;
57884;PMS5003;43703;51.060;-0.086;2022-07-23T16:21:26;5;5;
57884;PMS5003;43703;51.060;-0.086;2022-07-23T16:23:52;6;5;
57884;PMS5003;43703;51.060;-0.086;2022-07-23T16:26:18;7;6;
57884;PMS5003;43703;51.060;-0.086;2022-07-23T16:28:44;5;5;
57884;PMS5003;43703;51.060;-0.086;2022-07-23T16:31:10;7;7;
57884;PMS5003;43703;51.060;-0.086;2022-07-23T16:33:35;5;5;
57884;PMS5003;43703;51.060;-0.086;2022-07-23T16:36:01;5;5;